Time;durP1;ratioP1;P1;durP2;ratioP2;P2;SDS_P1;SDS_P2;PMS_P1;PMS_P2;Temp;Humidity;BMP_temperature;BMP_pressure;BME280_temperature;BME280_humidity;BME280_pressure;Samples;Min_cycle;Max_cycle;Signal;HPM_P1;HPM_P2
2021/07/09 00:01:46;;;;;;;6.47;4.30;;;19.80;73.70;;;;;;5011874;28;20053;-88
2021/07/09 00:04:14;;;;;;;4.90;4.15;;;19.80;73.70;;;;;;5012494;28;20025;-88
2021/07/09 00:06:40;;;;;;;6.80;4.63;;;19.70;73.70;;;;;;5010686;28;20485;-88
2021/07/09 00:09:06;;;;;;;4.93;4.18;;;19.70;73.80;;;;;;5014096;28;20022;-90
2021/07/09 00:11:34;;;;;;;5.50;3.65;;;19.60;73.80;;;;;;5014766;28;20491;-90
2021/07/09 00:14:01;;;;;;;4.13;3.60;;;19.60;73.90;;;;;;5014430;28;20108;-90
2021/07/09 00:16:26;;;;;;;4.00;3.55;;;19.60;73.90;;;;;;5016488;28;20496;-90
2021/07/09 00:18:52;;;;;;;4.85;4.18;;;19.60;73.80;;;;;;5016391;28;20026;-91
2021/07/09 00:21:18;;;;;;;5.20;3.83;;;19.60;73.90;;;;;;5014095;28;20129;-92
2021/07/09 00:23:44;;;;;;;5.70;3.92;;;19.60;73.90;;;;;;5009886;28;20046;-92
2021/07/09 00:26:11;;;;;;;4.97;3.83;;;19.60;73.80;;;;;;5013781;28;20036;-92
2021/07/09 00:28:36;;;;;;;6.03;4.07;;;19.60;73.80;;;;;;5014829;28;20473;-90
2021/07/09 00:31:05;;;;;;;5.03;4.03;;;19.50;73.80;;;;;;5015034;28;20062;-91
2021/07/09 00:33:30;;;;;;;6.78;4.80;;;19.50;73.90;;;;;;5015821;28;20038;-91
2021/07/09 00:42:41;;;;;;;6.15;4.25;;;19.30;74.00;;;;;;5003527;28;20100;-92
2021/07/09 00:45:08;;;;;;;4.18;3.55;;;19.30;74.10;;;;;;5010959;28;20033;-93
2021/07/09 00:47:34;;;;;;;5.90;4.85;;;19.30;74.20;;;;;;5006534;28;20038;-95
2021/07/09 00:50:00;;;;;;;5.10;4.60;;;19.20;74.20;;;;;;5002256;28;20061;-86
2021/07/09 00:52:26;;;;;;;5.55;4.28;;;19.20;74.30;;;;;;5000216;28;20123;-89
2021/07/09 00:54:52;;;;;;;5.35;4.40;;;19.20;74.40;;;;;;4998647;28;20025;-87
2021/07/09 00:57:18;;;;;;;6.88;4.03;;;19.20;74.40;;;;;;5004484;28;20030;-89
2021/07/09 00:59:44;;;;;;;4.80;4.13;;;19.20;74.40;;;;;;4996440;28;20014;-91
2021/07/09 01:02:09;;;;;;;4.45;4.05;;;19.20;74.40;;;;;;4996251;28;20038;-90
2021/07/09 01:04:35;;;;;;;4.97;4.13;;;19.20;74.40;;;;;;5015418;28;20032;-91
2021/07/09 01:07:02;;;;;;;6.45;4.88;;;19.10;74.30;;;;;;4996918;28;20054;-91
2021/07/09 01:09:28;;;;;;;6.93;5.07;;;19.10;74.50;;;;;;4996230;28;20061;-92
2021/07/09 01:11:55;;;;;;;6.93;5.00;;;19.00;74.70;;;;;;4994667;28;20430;-91
2021/07/09 01:14:22;;;;;;;5.35;4.68;;;18.90;74.80;;;;;;4994961;28;20053;-90
2021/07/09 01:16:49;;;;;;;6.05;4.13;;;18.80;75.00;;;;;;5013616;28;20028;-91
2021/07/09 01:19:17;;;;;;;7.10;5.25;;;18.80;75.10;;;;;;5013800;28;20030;-92
2021/07/09 01:21:44;;;;;;;5.82;4.47;;;18.70;75.30;;;;;;5015051;28;20076;-92
2021/07/09 01:24:11;;;;;;;7.85;6.18;;;18.60;75.30;;;;;;5012868;28;20052;-91
2021/07/09 01:26:41;;;;;;;5.47;4.53;;;18.50;75.40;;;;;;5015337;28;20129;-88
2021/07/09 01:29:08;;;;;;;4.93;4.15;;;18.50;75.50;;;;;;5010714;28;20027;-89
2021/07/09 01:31:35;;;;;;;5.05;4.22;;;18.50;75.50;;;;;;4994871;28;20030;-91
2021/07/09 01:34:02;;;;;;;5.38;4.30;;;18.50;75.40;;;;;;5011933;28;20473;-91
2021/07/09 01:36:28;;;;;;;6.15;4.38;;;18.50;75.30;;;;;;5015733;28;20062;-90
2021/07/09 01:38:54;;;;;;;5.95;4.28;;;18.60;75.30;;;;;;4998051;28;20469;-91
2021/07/09 01:41:22;;;;;;;5.05;4.15;;;18.50;75.30;;;;;;5002073;28;20029;-89
2021/07/09 01:43:48;;;;;;;5.05;4.50;;;18.50;75.30;;;;;;5010066;28;20470;-91
2021/07/09 01:46:14;;;;;;;5.90;4.30;;;18.50;75.30;;;;;;4995502;28;20022;-91
2021/07/09 01:48:39;;;;;;;6.22;4.60;;;18.50;75.20;;;;;;5000395;28;20024;-90
2021/07/09 01:51:05;;;;;;;5.80;4.80;;;18.50;75.20;;;;;;5014936;28;20030;-90
2021/07/09 01:53:32;;;;;;;5.40;4.40;;;18.50;75.20;;;;;;5005382;28;20065;-89
2021/07/09 01:55:57;;;;;;;5.20;4.13;;;18.50;75.20;;;;;;5008964;28;20104;-90
2021/07/09 01:58:23;;;;;;;6.28;4.88;;;18.50;75.10;;;;;;4997304;28;20073;-91
2021/07/09 02:00:50;;;;;;;5.35;4.65;;;18.50;75.20;;;;;;4998066;28;20041;-90
2021/07/09 02:03:20;;;;;;;6.15;4.68;;;18.50;75.20;;;;;;5004246;28;20050;-90
2021/07/09 02:05:46;;;;;;;6.68;5.03;;;18.40;75.30;;;;;;5014479;28;20026;-91
2021/07/09 02:08:12;;;;;;;6.22;5.20;;;18.40;75.40;;;;;;5000478;28;20029;-91
2021/07/09 02:10:40;;;;;;;5.60;4.78;;;18.40;75.50;;;;;;5012199;28;20026;-90
2021/07/09 02:13:06;;;;;;;6.97;5.10;;;18.40;75.50;;;;;;5006304;28;20036;-91
2021/07/09 02:15:34;;;;;;;6.25;5.10;;;18.30;75.50;;;;;;5010350;28;20034;-91
2021/07/09 02:18:01;;;;;;;6.15;5.00;;;18.30;75.80;;;;;;5015006;28;20025;-94
2021/07/09 02:20:31;;;;;;;7.10;5.40;;;18.20;75.80;;;;;;5014314;28;20061;-92
2021/07/09 02:22:58;;;;;;;6.25;5.55;;;18.20;75.90;;;;;;5007510;28;20095;-89
2021/07/09 02:25:25;;;;;;;6.97;5.20;;;18.10;75.90;;;;;;5007127;28;20481;-89
2021/07/09 02:27:52;;;;;;;6.85;5.22;;;18.10;76.10;;;;;;5009488;28;20481;-90
2021/07/09 02:30:18;;;;;;;5.35;4.50;;;18.10;76.20;;;;;;4994960;28;20022;-89
2021/07/09 02:32:46;;;;;;;6.60;5.30;;;18.00;76.20;;;;;;5006198;28;20042;-92
2021/07/09 02:35:15;;;;;;;6.03;4.90;;;18.00;76.40;;;;;;5013060;28;20028;-92
2021/07/09 02:37:42;;;;;;;6.00;4.78;;;18.00;76.50;;;;;;5013210;28;20033;-93
2021/07/09 02:40:09;;;;;;;6.40;4.85;;;17.90;76.40;;;;;;5012471;28;20026;-92
2021/07/09 02:42:35;;;;;;;6.40;5.00;;;17.90;76.40;;;;;;5003200;28;20053;-91
2021/07/09 02:45:01;;;;;;;5.90;4.70;;;18.00;76.50;;;;;;5007902;28;20018;-92
2021/07/09 02:47:27;;;;;;;5.65;4.47;;;17.90;76.40;;;;;;5013898;28;20026;-91
2021/07/09 02:49:52;;;;;;;5.55;4.15;;;17.90;76.40;;;;;;5011725;28;20030;-92
2021/07/09 02:52:18;;;;;;;6.47;4.38;;;18.00;76.30;;;;;;5003015;28;20037;-89
2021/07/09 02:54:43;;;;;;;6.78;4.65;;;17.90;76.20;;;;;;5009286;28;20146;-91
2021/07/09 02:57:09;;;;;;;6.00;4.45;;;18.00;76.30;;;;;;4992900;28;20080;-92
2021/07/09 02:59:35;;;;;;;5.85;4.20;;;17.90;76.30;;;;;;4994694;28;20029;-93
2021/07/09 03:02:01;;;;;;;5.40;4.25;;;18.00;76.40;;;;;;4994450;28;20656;-92
2021/07/09 03:04:26;;;;;;;6.43;4.53;;;17.90;76.30;;;;;;4994470;28;20093;-89
2021/07/09 03:06:52;;;;;;;6.13;4.35;;;18.00;76.30;;;;;;4993097;28;20022;-92
2021/07/09 03:09:18;;;;;;;5.50;4.40;;;18.00;76.30;;;;;;5008428;28;20484;-90
2021/07/09 03:11:44;;;;;;;6.03;4.45;;;17.90;76.30;;;;;;5011684;28;20029;-91
2021/07/09 03:14:10;;;;;;;6.28;4.32;;;17.90;76.40;;;;;;5012678;28;20018;-92
2021/07/09 03:16:41;;;;;;;6.97;4.75;;;17.90;76.30;;;;;;5000628;28;20029;-90
2021/07/09 03:19:07;;;;;;;6.63;4.95;;;18.00;76.40;;;;;;5008630;28;20033;-90
2021/07/09 03:21:36;;;;;;;5.72;4.68;;;18.00;76.40;;;;;;4995787;28;20026;-91
2021/07/09 03:24:04;;;;;;;6.03;4.60;;;18.00;76.30;;;;;;5013412;28;20022;-91
2021/07/09 03:26:30;;;;;;;6.22;4.60;;;18.00;76.30;;;;;;5011799;28;20030;-90
2021/07/09 03:28:59;;;;;;;6.13;4.65;;;18.00;76.60;;;;;;4995862;28;20507;-91
2021/07/09 03:31:26;;;;;;;5.32;4.05;;;18.00;76.20;;;;;;5007331;28;20034;-92
2021/07/09 03:33:52;;;;;;;5.57;3.83;;;18.00;76.20;;;;;;5011249;28;20049;-92
2021/07/09 03:36:18;;;;;;;6.15;4.45;;;18.00;76.20;;;;;;5002196;28;20065;-91
2021/07/09 03:38:44;;;;;;;5.80;3.95;;;18.00;76.20;;;;;;4996405;28;20421;-89
2021/07/09 03:41:09;;;;;;;6.38;4.65;;;18.00;76.10;;;;;;4998049;28;20058;-90
2021/07/09 03:43:35;;;;;;;4.60;3.80;;;18.00;76.10;;;;;;5008430;28;20369;-89
2021/07/09 03:46:00;;;;;;;5.97;4.10;;;18.00;76.10;;;;;;5010987;28;20169;-89
2021/07/09 03:48:26;;;;;;;6.82;4.63;;;18.10;76.00;;;;;;5005851;28;20106;-90
2021/07/09 03:50:51;;;;;;;5.93;4.63;;;18.10;76.00;;;;;;4997653;28;20021;-92
2021/07/09 03:53:17;;;;;;;6.72;4.10;;;18.10;75.90;;;;;;4991195;28;20053;-90
2021/07/09 03:55:43;;;;;;;6.03;4.25;;;18.10;75.90;;;;;;5001686;28;20045;-91
2021/07/09 03:58:08;;;;;;;7.38;4.32;;;18.00;75.90;;;;;;5013165;28;20620;-91
2021/07/09 04:00:34;;;;;;;5.53;4.57;;;18.00;76.00;;;;;;5007126;28;20131;-92
2021/07/09 04:02:59;;;;;;;5.70;4.40;;;18.00;76.00;;;;;;4997100;28;20042;-89
2021/07/09 04:05:25;;;;;;;5.50;4.57;;;18.00;76.20;;;;;;4993415;28;20409;-91
2021/07/09 04:07:51;;;;;;;6.97;4.78;;;18.00;76.30;;;;;;4992197;28;20026;-92
2021/07/09 04:10:17;;;;;;;6.00;4.25;;;17.90;76.30;;;;;;5000665;28;20046;-93
2021/07/09 04:12:42;;;;;;;5.00;4.32;;;17.90;76.30;;;;;;4993500;28;20025;-92
2021/07/09 04:15:09;;;;;;;6.05;4.70;;;17.90;76.30;;;;;;5000555;28;20380;-93
2021/07/09 04:17:35;;;;;;;6.88;5.03;;;17.90;76.20;;;;;;5012143;28;20018;-93
2021/07/09 04:20:00;;;;;;;7.65;5.07;;;17.90;76.20;;;;;;5012925;28;20029;-94
2021/07/09 04:22:26;;;;;;;6.15;4.97;;;17.90;76.20;;;;;;5009784;28;20032;-92
2021/07/09 04:24:51;;;;;;;5.90;4.78;;;17.90;76.30;;;;;;4995831;28;20457;-92
2021/07/09 04:27:17;;;;;;;7.47;5.60;;;17.90;76.50;;;;;;5012998;28;20159;-91
2021/07/09 04:29:42;;;;;;;7.72;5.30;;;17.90;76.60;;;;;;5013027;28;20445;-93
2021/07/09 04:32:08;;;;;;;7.53;5.82;;;17.80;76.50;;;;;;5012502;28;20030;-93
2021/07/09 04:34:34;;;;;;;7.05;5.60;;;17.90;76.50;;;;;;5012692;28;20040;-93
2021/07/09 04:36:59;;;;;;;7.03;5.00;;;17.90;76.50;;;;;;5012644;28;20307;-91
2021/07/09 04:39:25;;;;;;;7.38;5.75;;;17.90;76.40;;;;;;4993679;28;20022;-91
2021/07/09 04:41:51;;;;;;;7.82;6.28;;;18.00;76.30;;;;;;4997282;28;20084;-93
2021/07/09 04:44:16;;;;;;;5.72;4.45;;;18.00;76.20;;;;;;5012469;28;20022;-90
2021/07/09 04:46:42;;;;;;;6.80;5.20;;;18.00;76.10;;;;;;5012490;28;20109;-92
2021/07/09 04:49:08;;;;;;;7.28;5.40;;;18.00;76.10;;;;;;5013954;28;20101;-93
2021/07/09 04:51:34;;;;;;;7.80;5.85;;;17.90;76.10;;;;;;5014626;28;20022;-94
2021/07/09 04:54:00;;;;;;;7.38;5.45;;;17.90;76.10;;;;;;5012176;28;20088;-91
2021/07/09 04:56:25;;;;;;;7.53;5.85;;;17.90;76.20;;;;;;5019483;28;20025;-93
2021/07/09 04:58:58;;;;;;;7.90;5.35;;;17.90;76.10;;;;;;5021675;28;20029;-92
2021/07/09 05:01:24;;;;;;;7.03;5.63;;;18.00;76.30;;;;;;5001871;28;20030;-96
2021/07/09 05:03:49;;;;;;;7.40;5.28;;;18.40;75.50;;;;;;5017164;28;20040;-96
2021/07/09 05:06:15;;;;;;;7.32;5.50;;;19.00;74.20;;;;;;5012687;28;20049;-96
2021/07/09 05:08:41;;;;;;;7.82;5.75;;;19.40;72.50;;;;;;5012722;28;20021;-95
2021/07/09 05:11:09;;;;;;;8.20;5.47;;;19.40;72.10;;;;;;5018279;28;20053;-96
2021/07/09 05:13:38;;;;;;;7.65;5.32;;;19.60;71.70;;;;;;5002300;28;20030;-96
2021/07/09 05:16:05;;;;;;;7.57;5.60;;;19.90;71.10;;;;;;5015635;28;20507;-96
2021/07/09 05:18:31;;;;;;;7.68;5.45;;;20.40;69.90;;;;;;5016632;28;20053;-94
2021/07/09 05:21:05;;;;;;;7.53;4.88;;;20.90;68.60;;;;;;5018726;28;20072;-96
2021/07/09 05:23:30;;;;;;;8.18;5.68;;;21.30;67.40;;;;;;5017630;28;20034;-95
2021/07/09 05:25:56;;;;;;;8.52;6.10;;;21.70;66.50;;;;;;5018260;28;20098;-96
2021/07/09 05:28:21;;;;;;;8.00;5.18;;;21.90;65.90;;;;;;5020777;28;20018;-92
2021/07/09 05:30:47;;;;;;;6.85;5.05;;;22.20;65.40;;;;;;5015880;28;20052;-94
2021/07/09 05:33:16;;;;;;;6.63;4.75;;;22.40;64.80;;;;;;5004029;28;20033;-91
2021/07/09 05:35:44;;;;;;;7.18;5.00;;;22.60;64.30;;;;;;5016519;28;20040;-93
2021/07/09 05:38:10;;;;;;;8.40;5.70;;;22.90;63.80;;;;;;5017281;28;20030;-95
2021/07/09 05:40:36;;;;;;;6.78;4.55;;;23.00;63.50;;;;;;5015823;28;20401;-89
2021/07/09 05:43:02;;;;;;;9.35;6.63;;;23.20;63.10;;;;;;5012101;28;20033;-88
2021/07/09 05:45:35;;;;;;;8.35;5.72;;;23.30;62.60;;;;;;4995466;28;20022;-89
2021/07/09 05:48:01;;;;;;;7.15;5.00;;;23.30;62.70;;;;;;4999332;28;20058;-89
2021/07/09 05:50:26;;;;;;;6.88;5.45;;;23.30;62.90;;;;;;5005363;28;20022;-90
2021/07/09 05:52:54;;;;;;;8.43;5.70;;;23.30;62.90;;;;;;4996731;28;20025;-90
2021/07/09 05:55:21;;;;;;;7.35;5.00;;;23.50;62.70;;;;;;5011224;28;20041;-90
2021/07/09 05:57:46;;;;;;;7.75;5.82;;;23.60;62.80;;;;;;5004586;28;20018;-89
2021/07/09 06:00:13;;;;;;;8.55;5.90;;;23.70;62.70;;;;;;5008080;28;20084;-91
2021/07/09 06:02:38;;;;;;;9.32;6.35;;;23.50;63.00;;;;;;5010252;28;20496;-92
2021/07/09 06:08:00;;;;;;;8.95;6.63;;;23.40;64.00;;;;;;5017001;28;20041;-96
2021/07/09 06:10:26;;;;;;;8.07;6.32;;;23.40;64.20;;;;;;5011974;28;20028;-96
2021/07/09 06:12:51;;;;;;;7.75;6.00;;;23.30;64.70;;;;;;5010112;28;20030;-96
2021/07/09 06:15:17;;;;;;;9.68;6.28;;;23.20;65.20;;;;;;5015231;28;20025;-96
2021/07/09 06:17:43;;;;;;;6.88;5.22;;;23.10;65.40;;;;;;5014612;28;20060;-95
2021/07/09 06:20:08;;;;;;;7.95;5.72;;;23.00;65.70;;;;;;5014740;28;20019;-95
2021/07/09 06:22:34;;;;;;;7.55;5.18;;;23.00;65.90;;;;;;5013968;28;20076;-94
2021/07/09 06:25:00;;;;;;;8.70;5.85;;;22.90;66.00;;;;;;5013300;28;20025;-90
2021/07/09 06:27:25;;;;;;;5.97;4.68;;;22.90;66.10;;;;;;4999591;28;20105;-91
2021/07/09 06:29:51;;;;;;;7.07;5.25;;;22.90;66.30;;;;;;5014959;28;20026;-86
2021/07/09 06:32:16;;;;;;;6.57;4.82;;;22.80;66.30;;;;;;5012697;28;20021;-93
2021/07/09 06:34:42;;;;;;;6.35;4.15;;;22.80;66.20;;;;;;4998800;28;20041;-96
2021/07/09 06:37:07;;;;;;;8.32;4.93;;;22.70;66.10;;;;;;4995793;28;20026;-91
2021/07/09 06:39:33;;;;;;;6.35;4.55;;;22.60;65.80;;;;;;5012135;28;20091;-88
2021/07/09 06:41:58;;;;;;;5.80;4.00;;;22.60;65.90;;;;;;5010893;28;20072;-89
2021/07/09 06:44:24;;;;;;;5.00;3.83;;;22.60;66.00;;;;;;5011484;28;20473;-89
2021/07/09 06:46:49;;;;;;;5.07;4.10;;;22.70;65.80;;;;;;5010497;28;20036;-90
2021/07/09 06:49:15;;;;;;;5.45;3.75;;;22.70;65.50;;;;;;5006949;28;20034;-88
2021/07/09 06:51:41;;;;;;;5.03;4.05;;;22.80;65.40;;;;;;5011158;28;20560;-89
2021/07/09 06:54:06;;;;;;;4.40;3.47;;;22.80;65.00;;;;;;5012320;28;20042;-89
2021/07/09 06:56:32;;;;;;;4.65;3.30;;;22.90;65.00;;;;;;5010829;28;20404;-89
2021/07/09 06:58:58;;;;;;;4.15;3.05;;;23.10;64.90;;;;;;5012979;28;20031;-89
2021/07/09 07:01:23;;;;;;;3.70;2.92;;;23.10;64.50;;;;;;5012651;28;20061;-90
2021/07/09 07:03:49;;;;;;;3.42;2.65;;;23.20;64.10;;;;;;5011227;28;20072;-88
2021/07/09 07:06:15;;;;;;;3.45;2.78;;;23.30;64.10;;;;;;5005724;28;20467;-87
2021/07/09 07:08:40;;;;;;;2.72;2.28;;;23.40;63.70;;;;;;5011285;28;20026;-88
2021/07/09 07:11:07;;;;;;;2.60;2.15;;;23.40;63.20;;;;;;5012180;28;20022;-88
2021/07/09 07:13:32;;;;;;;2.67;2.33;;;23.50;63.10;;;;;;5011729;28;20018;-88
2021/07/09 07:15:58;;;;;;;3.05;2.30;;;23.70;62.90;;;;;;5011708;28;20084;-88
2021/07/09 07:18:24;;;;;;;4.00;2.53;;;23.70;62.40;;;;;;5009680;28;20026;-87
2021/07/09 07:20:50;;;;;;;2.53;2.33;;;23.70;61.60;;;;;;5010392;28;20037;-88
2021/07/09 07:23:17;;;;;;;2.65;1.90;;;23.70;61.90;;;;;;5011218;28;20017;-88
2021/07/09 07:25:44;;;;;;;2.72;2.45;;;23.70;61.90;;;;;;5010282;28;20050;-88
2021/07/09 07:28:10;;;;;;;2.35;1.83;;;23.80;62.10;;;;;;5011555;28;20033;-89
2021/07/09 07:30:36;;;;;;;2.33;2.13;;;23.80;62.00;;;;;;5011848;28;20045;-88
2021/07/09 07:33:02;;;;;;;3.03;2.03;;;23.90;61.30;;;;;;5012200;28;20025;-89
2021/07/09 07:35:30;;;;;;;4.38;2.20;;;24.00;61.00;;;;;;5012401;28;20108;-88
2021/07/09 07:37:56;;;;;;;3.33;2.13;;;24.10;60.70;;;;;;4993151;28;20116;-87
2021/07/09 07:40:22;;;;;;;2.53;2.05;;;24.10;60.50;;;;;;5010672;28;20117;-88
2021/07/09 07:42:47;;;;;;;2.17;1.90;;;24.30;60.20;;;;;;5009776;28;20100;-89
2021/07/09 07:45:13;;;;;;;2.38;2.08;;;24.30;59.80;;;;;;5011134;28;20106;-89
2021/07/09 07:47:39;;;;;;;3.13;2.25;;;24.30;59.20;;;;;;4994954;28;20042;-88
2021/07/09 07:50:06;;;;;;;2.92;1.90;;;24.40;59.10;;;;;;5006237;28;20019;-88
2021/07/09 07:52:32;;;;;;;2.13;1.90;;;24.50;58.50;;;;;;4997014;28;20036;-88
2021/07/09 07:54:58;;;;;;;2.33;2.10;;;24.60;58.00;;;;;;5003597;28;20113;-88
2021/07/09 07:57:23;;;;;;;2.25;2.05;;;24.60;57.40;;;;;;4998852;28;20113;-88
2021/07/09 07:59:49;;;;;;;3.03;2.30;;;24.60;56.90;;;;;;5008267;28;20050;-88
2021/07/09 08:02:15;;;;;;;2.38;2.03;;;24.60;56.60;;;;;;4996187;28;20065;-88
2021/07/09 08:04:40;;;;;;;3.47;2.22;;;24.70;56.60;;;;;;5002507;28;20469;-90
2021/07/09 08:07:06;;;;;;;3.03;2.17;;;24.80;56.70;;;;;;5003125;28;20428;-88
2021/07/09 08:09:32;;;;;;;3.05;2.60;;;24.90;56.30;;;;;;5011546;28;20037;-89
2021/07/09 08:11:58;;;;;;;3.53;2.50;;;24.90;55.90;;;;;;5010736;28;20018;-89
2021/07/09 08:14:24;;;;;;;3.22;2.58;;;25.00;55.70;;;;;;5011291;28;20036;-89
2021/07/09 08:16:52;;;;;;;2.53;2.28;;;25.10;55.60;;;;;;5011732;28;20160;-89
2021/07/09 08:19:19;;;;;;;2.28;2.05;;;25.10;55.00;;;;;;5010050;28;20030;-88
2021/07/09 08:21:46;;;;;;;2.72;2.42;;;25.10;54.90;;;;;;5010967;28;20037;-88
2021/07/09 08:24:13;;;;;;;3.00;2.60;;;25.00;54.60;;;;;;5011273;28;20092;-88
2021/07/09 08:26:39;;;;;;;3.85;2.83;;;25.10;54.50;;;;;;5011235;28;20030;-89
2021/07/09 08:29:04;;;;;;;4.70;2.95;;;25.20;54.70;;;;;;5012149;28;20021;-88
2021/07/09 08:31:30;;;;;;;4.22;2.90;;;25.30;54.50;;;;;;5014257;28;20088;-88
2021/07/09 08:33:56;;;;;;;4.82;3.28;;;25.30;54.40;;;;;;5015183;28;20033;-88
2021/07/09 08:36:23;;;;;;;3.40;2.47;;;25.30;54.40;;;;;;5015063;28;20045;-87
2021/07/09 08:38:49;;;;;;;3.03;2.70;;;25.40;54.50;;;;;;5014836;28;20026;-88
2021/07/09 08:41:14;;;;;;;3.38;2.75;;;25.40;54.30;;;;;;5014503;28;20045;-89
2021/07/09 08:43:41;;;;;;;4.15;3.15;;;25.50;54.20;;;;;;5015740;28;20018;-90
2021/07/09 08:46:07;;;;;;;4.10;2.72;;;25.50;54.00;;;;;;5016065;28;20025;-90
2021/07/09 08:48:35;;;;;;;3.42;2.85;;;25.60;53.80;;;;;;5013150;28;20021;-90
2021/07/09 08:51:00;;;;;;;5.18;2.50;;;25.70;53.10;;;;;;5013021;28;20049;-91
2021/07/09 08:53:27;;;;;;;3.85;2.15;;;25.70;53.00;;;;;;5003081;28;20476;-91
2021/07/09 08:55:52;;;;;;;3.17;2.70;;;25.70;52.40;;;;;;5010266;28;20471;-90
2021/07/09 08:58:18;;;;;;;3.55;2.30;;;25.70;52.10;;;;;;5010231;28;20042;-90
2021/07/09 09:00:46;;;;;;;4.57;3.22;;;25.70;52.30;;;;;;5013080;28;20025;-91
2021/07/09 09:03:22;;;;;;;3.67;2.80;;;25.70;51.80;;;;;;5007202;28;20026;-90
2021/07/09 09:05:49;;;;;;;4.10;2.60;;;25.70;52.20;;;;;;5012994;28;20036;-90
2021/07/09 09:08:18;;;;;;;4.40;2.67;;;25.80;52.50;;;;;;5011137;28;20030;-90
2021/07/09 09:10:51;;;;;;;3.42;2.60;;;25.80;51.60;;;;;;5007672;28;20517;-90
2021/07/09 09:13:25;;;;;;;4.20;2.78;;;25.90;51.20;;;;;;5001511;28;20032;-91
2021/07/09 09:16:04;;;;;;;3.95;2.85;;;25.90;51.00;;;;;;5008749;28;20029;-89
2021/07/09 09:18:39;;;;;;;4.50;2.38;;;26.00;51.70;;;;;;5356811;22;20050;-88
2021/07/09 09:21:09;;;;;;;4.47;3.28;;;26.10;51.60;;;;;;4994259;28;20033;-87
2021/07/09 09:23:51;;;;;;;3.83;3.15;;;26.10;51.60;;;;;;4994388;28;20092;-94
2021/07/09 09:26:39;;;;;;;3.90;3.28;;;26.10;51.60;;;;;;4976584;28;20074;-93
2021/07/09 09:29:05;;;;;;;4.72;3.60;;;26.00;51.90;;;;;;4985420;28;20038;-91
2021/07/09 09:31:35;;;;;;;3.30;2.80;;;26.00;51.90;;;;;;4994965;28;20367;-94
2021/07/09 09:34:03;;;;;;;4.15;2.90;;;26.00;52.10;;;;;;4995309;28;20486;-95
2021/07/09 09:36:29;;;;;;;2.97;2.60;;;26.10;52.40;;;;;;4978982;28;20106;-94
2021/07/09 09:38:56;;;;;;;3.10;2.60;;;26.20;52.10;;;;;;4995044;28;20101;-93
2021/07/09 09:41:21;;;;;;;3.88;3.13;;;26.30;52.20;;;;;;4992285;28;20037;-93
2021/07/09 09:43:47;;;;;;;4.35;3.08;;;26.20;51.80;;;;;;4992117;28;20022;-93
2021/07/09 09:46:15;;;;;;;3.70;3.00;;;26.30;52.00;;;;;;4993870;28;20022;-93
2021/07/09 09:48:45;;;;;;;4.85;3.85;;;26.30;52.00;;;;;;4993234;28;20019;-94
2021/07/09 09:51:25;;;;;;;4.40;3.65;;;26.20;51.50;;;;;;4989284;28;20129;-92
2021/07/09 09:53:54;;;;;;;5.05;3.13;;;26.20;51.50;;;;;;4986110;28;20553;-93
2021/07/09 09:56:43;;;;;;;4.13;2.90;;;26.20;51.50;;;;;;4994758;28;20023;-93
2021/07/09 09:59:19;;;;;;;4.30;3.50;;;26.10;51.80;;;;;;4979816;28;20018;-93
2021/07/09 10:01:53;;;;;;;3.92;3.33;;;26.10;52.10;;;;;;4994448;28;20489;-92
2021/07/09 10:04:19;;;;;;;3.28;2.97;;;26.10;52.30;;;;;;4995186;28;20018;-93
2021/07/09 10:06:46;;;;;;;4.53;3.25;;;26.10;52.40;;;;;;4993526;28;20019;-94
2021/07/09 10:09:13;;;;;;;3.42;2.85;;;26.10;52.40;;;;;;4992604;28;20030;-93
2021/07/09 10:11:39;;;;;;;3.88;2.88;;;26.10;52.60;;;;;;4995014;28;20030;-94
2021/07/09 10:14:19;;;;;;;4.00;3.13;;;26.10;52.60;;;;;;4993498;28;20325;-94
2021/07/09 10:16:47;;;;;;;4.57;3.60;;;26.10;52.70;;;;;;4993471;28;20018;-93
2021/07/09 10:19:24;;;;;;;5.70;4.05;;;26.00;52.10;;;;;;4992521;28;20026;-92
2021/07/09 10:21:49;;;;;;;3.05;2.75;;;25.90;52.50;;;;;;4993398;28;20045;-89
2021/07/09 10:24:17;;;;;;;4.05;3.28;;;25.90;52.60;;;;;;4994592;28;20022;-93
2021/07/09 10:26:47;;;;;;;4.72;3.35;;;25.90;52.70;;;;;;4993811;28;20060;-92
2021/07/09 10:29:15;;;;;;;4.80;3.22;;;26.00;52.70;;;;;;4994072;28;20047;-91
2021/07/09 10:31:44;;;;;;;3.15;2.75;;;25.90;52.50;;;;;;4989333;28;20058;-94
2021/07/09 10:34:27;;;;;;;3.05;2.53;;;25.90;52.70;;;;;;4994327;28;20783;-93
2021/07/09 10:37:01;;;;;;;3.88;2.58;;;26.00;52.30;;;;;;4993145;28;20057;-94
2021/07/09 10:39:41;;;;;;;3.30;2.70;;;26.10;52.00;;;;;;4992588;28;20027;-93
2021/07/09 10:42:14;;;;;;;4.00;2.95;;;26.10;51.80;;;;;;4990631;28;20050;-93
2021/07/09 10:45:12;;;;;;;3.58;2.88;;;26.10;51.90;;;;;;4974854;28;20015;-92
2021/07/09 10:47:39;;;;;;;3.85;2.70;;;26.10;52.10;;;;;;4974777;28;20151;-92
2021/07/09 10:50:13;;;;;;;2.97;2.67;;;26.10;52.20;;;;;;4992953;28;20046;-92
2021/07/09 10:52:41;;;;;;;4.07;2.97;;;26.00;52.30;;;;;;4993939;28;20031;-93
2021/07/09 10:55:26;;;;;;;3.08;2.78;;;25.80;52.00;;;;;;4996593;28;20026;-93
2021/07/09 10:58:41;;;;;;;2.70;2.30;;;25.60;52.40;;;;;;4984655;28;20026;-91
2021/07/09 11:01:17;;;;;;;3.53;2.30;;;25.50;52.30;;;;;;4984180;28;20038;-93
2021/07/09 11:04:06;;;;;;;2.60;2.40;;;25.50;52.10;;;;;;4993833;28;20037;-89
2021/07/09 11:06:32;;;;;;;2.30;2.10;;;25.60;52.20;;;;;;4992875;28;20381;-87
2021/07/09 11:09:02;;;;;;;2.10;1.90;;;25.80;52.10;;;;;;4992426;28;20024;-94
2021/07/09 11:11:36;;;;;;;1.98;1.50;;;25.90;51.20;;;;;;4992908;28;20026;-93
2021/07/09 11:14:09;;;;;;;3.13;2.60;;;25.90;50.40;;;;;;4992767;28;20057;-92
2021/07/09 11:16:49;;;;;;;3.38;2.10;;;26.10;49.60;;;;;;4997649;28;20117;-92
2021/07/09 11:19:18;;;;;;;3.63;2.45;;;26.30;49.80;;;;;;4986535;28;20027;-95
2021/07/09 11:21:48;;;;;;;3.03;2.53;;;26.40;49.90;;;;;;4974148;28;20414;-92
2021/07/09 11:24:17;;;;;;;1.90;1.75;;;26.50;49.10;;;;;;4972936;28;20033;-92
2021/07/09 11:26:49;;;;;;;3.42;2.20;;;26.60;49.10;;;;;;4990944;28;20038;-90
2021/07/09 11:29:33;;;;;;;;;;;26.70;48.50;;;;;;4992975;28;20029;-92
2021/07/09 11:32:03;;;;;;;3.58;2.55;;;26.80;48.70;;;;;;4990565;28;20030;-91
2021/07/09 11:34:32;;;;;;;4.00;3.00;;;27.00;48.50;;;;;;4974095;28;20078;-92
2021/07/09 11:36:59;;;;;;;3.10;2.80;;;27.10;48.70;;;;;;4978967;28;20072;-94
2021/07/09 11:39:28;;;;;;;4.05;2.63;;;27.00;48.30;;;;;;4992522;28;20022;-95
2021/07/09 11:42:07;;;;;;;2.97;1.90;;;27.00;48.60;;;;;;4990426;28;20514;-90
2021/07/09 11:45:03;;;;;;;2.05;1.70;;;27.20;48.00;;;;;;4992523;28;20026;-90
2021/07/09 11:47:30;;;;;;;3.20;2.20;;;27.40;47.80;;;;;;4992225;28;20034;-92
2021/07/09 11:50:02;;;;;;;3.85;3.40;;;27.60;47.20;;;;;;4979712;28;20053;-93
2021/07/09 11:52:29;;;;;;;;;;;27.80;47.00;;;;;;4973891;28;20433;-91
2021/07/09 11:54:57;;;;;;;2.05;1.83;;;27.90;47.20;;;;;;4991876;28;19913;-88
2021/07/09 11:57:28;;;;;;;3.72;2.28;;;28.10;47.40;;;;;;4988523;28;20045;-91
2021/07/09 11:59:58;;;;;;;2.10;1.90;;;28.20;47.20;;;;;;4976494;28;20057;-88
2021/07/09 12:02:27;;;;;;;2.63;2.30;;;28.40;47.10;;;;;;4974604;28;20042;-91
2021/07/09 12:04:57;;;;;;;4.15;3.03;;;28.60;46.80;;;;;;4988140;28;20022;-91
2021/07/09 12:07:49;;;;;;;4.03;2.85;;;28.60;46.00;;;;;;4985736;28;20044;-92
2021/07/09 12:10:20;;;;;;;2.97;2.58;;;28.40;45.60;;;;;;4981771;28;20030;-94
2021/07/09 12:12:48;;;;;;;4.10;3.10;;;28.30;45.80;;;;;;4983795;28;20030;-92
2021/07/09 12:15:20;;;;;;;3.67;2.40;;;28.20;45.80;;;;;;5000950;28;20118;-92
2021/07/09 12:17:56;;;;;;;2.63;2.17;;;28.10;46.00;;;;;;4987611;28;20548;-92
2021/07/09 12:20:26;;;;;;;4.78;3.08;;;28.20;46.10;;;;;;4986425;28;20034;-90
2021/07/09 12:23:03;;;;;;;4.30;2.85;;;28.10;45.70;;;;;;4988159;28;20041;-89
2021/07/09 12:25:31;;;;;;;3.65;3.00;;;28.20;45.80;;;;;;4990808;28;20033;-90
2021/07/09 12:28:05;;;;;;;3.50;2.50;;;28.30;45.50;;;;;;4991746;28;20481;-92
2021/07/09 12:30:36;;;;;;;2.47;2.03;;;28.30;45.40;;;;;;4991677;28;20022;-91
2021/07/09 12:33:07;;;;;;;2.40;2.00;;;28.30;44.70;;;;;;4976146;28;20050;-90
2021/07/09 12:35:34;;;;;;;2.38;2.15;;;28.60;45.00;;;;;;4976791;28;20785;-92
2021/07/09 12:38:09;;;;;;;2.40;2.10;;;28.80;44.60;;;;;;4990778;28;20639;-91
2021/07/09 12:40:42;;;;;;;2.28;1.88;;;29.00;43.80;;;;;;4972026;28;20393;-91
2021/07/09 12:43:14;;;;;;;3.67;2.00;;;29.00;43.40;;;;;;4979783;28;20038;-92
2021/07/09 12:45:41;;;;;;;3.38;2.30;;;28.90;42.90;;;;;;4991678;28;20037;-92
2021/07/09 12:48:07;;;;;;;1.80;1.70;;;29.00;43.10;;;;;;4981058;28;20102;-90
2021/07/09 12:50:38;;;;;;;2.78;1.98;;;29.20;42.90;;;;;;4992044;28;20121;-91
2021/07/09 12:53:11;;;;;;;3.08;1.88;;;29.30;42.80;;;;;;4982477;28;20067;-88
2021/07/09 12:55:39;;;;;;;1.90;1.70;;;29.60;42.70;;;;;;4971919;28;20122;-90
2021/07/09 12:58:14;;;;;;;2.55;2.17;;;29.70;42.10;;;;;;4988084;28;20026;-88
2021/07/09 13:00:48;;;;;;;2.70;1.98;;;29.80;41.80;;;;;;4980128;28;20061;-89
2021/07/09 13:03:23;;;;;;;3.17;2.15;;;30.10;41.70;;;;;;4989453;28;20119;-91